createdAt,value
2022-10-28T00:01:17.992Z,8.97
2022-10-28T00:03:47.571Z,6.95
2022-10-28T00:06:20.865Z,11.17
2022-10-28T00:08:48.157Z,11.07
2022-10-28T00:11:27.347Z,10.75
2022-10-28T00:13:56.350Z,11.82
2022-10-28T00:16:26.044Z,13.20
2022-10-28T00:18:54.357Z,7.20
2022-10-28T00:21:25.178Z,13.07
2022-10-28T00:23:52.432Z,10.30
2022-10-28T00:26:21.837Z,9.15
2022-10-28T00:28:57.826Z,11.25
2022-10-28T00:31:26.782Z,10.48
2022-10-28T00:33:53.741Z,12.47
2022-10-28T00:36:26.236Z,6.88
2022-10-28T00:38:54.669Z,11.77
2022-10-28T00:41:36.929Z,11.93
2022-10-28T00:44:41.182Z,11.68
2022-10-28T00:47:16.698Z,13.70
2022-10-28T00:49:47.720Z,11.63
2022-10-28T00:52:20.131Z,11.43
2022-10-28T00:54:47.287Z,13.13
2022-10-28T00:57:18.603Z,9.17
2022-10-28T00:59:49.448Z,10.63
2022-10-28T01:02:16.880Z,9.77
2022-10-28T01:04:44.280Z,10.40
2022-10-28T01:07:11.188Z,8.37
2022-10-28T01:09:40.138Z,7.10
2022-10-28T01:12:47.280Z,11.30
2022-10-28T01:15:37.226Z,11.33
2022-10-28T01:18:25.117Z,11.97
2022-10-28T01:20:59.808Z,10.43
2022-10-28T01:23:54.362Z,8.67
2022-10-28T01:26:43.984Z,10.03
2022-10-28T01:30:08.105Z,8.93
2022-10-28T01:32:53.033Z,9.40
2022-10-28T01:35:20.150Z,11.77
2022-10-28T01:38:06.070Z,13.03
2022-10-28T01:40:45.171Z,13.75
2022-10-28T01:43:26.340Z,13.18
2022-10-28T01:46:24.962Z,12.60
2022-10-28T01:48:57.701Z,10.23
2022-10-28T01:51:35.589Z,10.20
2022-10-28T01:54:06.799Z,12.67
2022-10-28T01:56:40.813Z,10.53
2022-10-28T01:59:12.677Z,11.55
2022-10-28T02:01:39.525Z,9.85
2022-10-28T02:04:07.734Z,12.03
2022-10-28T02:06:34.947Z,11.55
2022-10-28T02:09:13.784Z,12.27
2022-10-28T02:12:02.304Z,7.47
2022-10-28T02:15:00.611Z,11.63
2022-10-28T02:17:52.242Z,14.73
2022-10-28T02:20:45.919Z,10.50
2022-10-28T02:23:45.789Z,10.30
2022-10-28T02:26:27.259Z,11.20
2022-10-28T02:29:03.679Z,12.70
2022-10-28T02:31:42.596Z,10.57
2022-10-28T02:34:16.048Z,8.73
2022-10-28T02:36:47.670Z,12.40
2022-10-28T02:39:17.369Z,6.67
2022-10-28T02:41:50.833Z,13.57
2022-10-28T02:44:24.057Z,11.87
2022-10-28T02:46:53.037Z,9.50
2022-10-28T02:49:20.119Z,8.60
2022-10-28T02:51:52.796Z,9.67
2022-10-28T02:54:24.151Z,9.33
2022-10-28T02:57:12.324Z,8.57
2022-10-28T02:59:38.874Z,6.90
2022-10-28T03:02:05.591Z,10.68
2022-10-28T03:04:32.248Z,8.38
2022-10-28T03:06:58.818Z,14.67
2022-10-28T03:09:25.937Z,6.63
2022-10-28T03:11:52.633Z,7.03
2022-10-28T03:14:21.136Z,7.00
2022-10-28T03:16:50.555Z,12.05
2022-10-28T03:19:17.299Z,8.40
2022-10-28T03:21:45.281Z,11.07
2022-10-28T03:24:11.897Z,10.95
2022-10-28T03:26:38.657Z,9.05
2022-10-28T03:29:05.272Z,7.95
2022-10-28T03:31:31.926Z,9.00
2022-10-28T03:33:58.503Z,10.05
2022-10-28T03:36:25.084Z,8.05
2022-10-28T03:38:51.657Z,9.87
2022-10-28T03:41:18.223Z,8.07
2022-10-28T03:43:45.117Z,9.93
2022-10-28T03:46:11.628Z,9.60
2022-10-28T03:48:40.083Z,6.95
2022-10-28T03:51:07.058Z,11.37
2022-10-28T03:53:33.585Z,9.37
2022-10-28T03:56:01.871Z,7.55
2022-10-28T03:58:29.210Z,8.30
2022-10-28T04:00:56.843Z,10.68
2022-10-28T04:03:26.126Z,10.93
2022-10-28T04:05:52.938Z,11.27
2022-10-28T04:08:19.937Z,12.47
2022-10-28T04:10:47.697Z,17.50
2022-10-28T04:13:15.510Z,15.30
2022-10-28T04:15:42.197Z,15.32
2022-10-28T04:18:09.025Z,13.68
2022-10-28T04:20:35.821Z,13.80
2022-10-28T04:23:02.982Z,14.40
2022-10-28T04:25:30.053Z,12.37
2022-10-28T04:27:56.869Z,13.57
2022-10-28T04:30:25.645Z,9.83
2022-10-28T04:32:52.552Z,8.03
2022-10-28T04:35:19.107Z,9.98
2022-10-28T04:37:45.902Z,11.67
2022-10-28T04:40:12.711Z,12.80
2022-10-28T04:42:39.299Z,14.10
2022-10-28T04:45:06.431Z,13.80
2022-10-28T04:47:33.030Z,7.20
2022-10-28T04:50:00.085Z,12.70
2022-10-28T04:52:26.606Z,11.40
2022-10-28T04:54:53.302Z,8.63
2022-10-28T04:57:19.977Z,8.23
2022-10-28T04:59:47.514Z,8.10
2022-10-28T05:02:15.382Z,8.33
2022-10-28T05:04:41.992Z,11.13
2022-10-28T05:07:09.425Z,11.00
2022-10-28T05:09:36.096Z,10.20
2022-10-28T05:12:02.637Z,9.30
2022-10-28T05:14:29.329Z,9.63
2022-10-28T05:16:56.017Z,9.02
2022-10-28T05:19:22.958Z,8.73
2022-10-28T05:21:49.477Z,12.17
2022-10-28T05:24:16.025Z,8.07
2022-10-28T05:26:44.015Z,11.93
2022-10-28T05:29:10.802Z,10.27
2022-10-28T05:31:37.364Z,9.40
2022-10-28T05:34:03.830Z,12.55
2022-10-28T05:36:30.312Z,12.50
2022-10-28T05:38:56.818Z,13.50
2022-10-28T05:41:24.933Z,15.27
2022-10-28T05:43:52.068Z,12.52
2022-10-28T05:46:18.678Z,9.13
2022-10-28T05:48:45.390Z,8.37
2022-10-28T05:51:13.425Z,10.07
2022-10-28T05:53:44.208Z,12.20
2022-10-28T05:56:11.082Z,11.70
2022-10-28T05:58:37.653Z,8.47
2022-10-28T06:01:09.461Z,9.07
2022-10-28T06:03:36.226Z,9.47
2022-10-28T06:06:02.978Z,11.10
2022-10-28T06:08:30.778Z,10.70
2022-10-28T06:10:56.124Z,10.43
2022-10-28T06:13:23.773Z,8.57
2022-10-28T06:15:52.073Z,10.13
2022-10-28T06:18:19.129Z,10.37
2022-10-28T06:20:56.994Z,10.63
2022-10-28T06:23:24.963Z,14.50
2022-10-28T06:26:00.322Z,12.63
2022-10-28T06:28:27.399Z,10.60
2022-10-28T06:30:59.706Z,13.40
2022-10-28T06:33:26.182Z,11.13
2022-10-28T06:35:56.779Z,11.30
2022-10-28T06:38:24.756Z,11.75
2022-10-28T06:40:52.523Z,13.25
2022-10-28T06:43:20.706Z,11.10
2022-10-28T06:45:52.142Z,12.30
2022-10-28T06:48:20.268Z,12.60
2022-10-28T06:50:46.845Z,10.57
2022-10-28T06:53:14.501Z,11.47
2022-10-28T06:55:42.530Z,10.83
2022-10-28T06:58:10.306Z,11.63
2022-10-28T07:00:36.950Z,10.13
2022-10-28T07:03:04.540Z,17.03
2022-10-28T07:05:32.880Z,12.90
2022-10-28T07:08:00.491Z,10.37
2022-10-28T07:10:27.166Z,9.83
2022-10-28T07:12:54.027Z,11.10
2022-10-28T07:15:21.898Z,8.80
2022-10-28T07:17:59.555Z,9.30
2022-10-28T07:20:27.703Z,13.80
2022-10-28T07:23:02.234Z,10.90
2022-10-28T07:25:30.844Z,10.40
2022-10-28T07:28:00.415Z,9.43
2022-10-28T07:30:27.716Z,9.90
2022-10-28T07:32:55.107Z,9.77
2022-10-28T07:35:22.165Z,10.60
2022-10-28T07:37:48.643Z,9.77
2022-10-28T07:40:15.219Z,13.52
2022-10-28T07:42:42.187Z,9.82
2022-10-28T07:45:10.047Z,11.40
2022-10-28T07:47:38.833Z,11.23
2022-10-28T07:50:11.330Z,12.03
2022-10-28T07:52:38.777Z,12.80
2022-10-28T07:55:08.014Z,7.80
2022-10-28T07:57:35.457Z,6.32
2022-10-28T08:00:05.164Z,14.40
2022-10-28T08:02:37.803Z,12.73
2022-10-28T08:05:05.127Z,8.55
2022-10-28T08:07:34.875Z,13.90
2022-10-28T08:10:04.945Z,10.07
2022-10-28T08:12:32.468Z,10.02
2022-10-28T08:14:59.657Z,9.83
2022-10-28T08:17:26.339Z,8.50
2022-10-28T08:19:52.887Z,11.65
2022-10-28T08:22:19.453Z,10.65
2022-10-28T08:24:46.066Z,8.35
2022-10-28T08:27:12.597Z,9.60
2022-10-28T08:29:39.188Z,10.63
2022-10-28T08:32:08.987Z,9.38
2022-10-28T08:34:38.003Z,8.85
2022-10-28T08:37:07.677Z,9.40
2022-10-28T08:39:35.050Z,10.23
2022-10-28T08:42:23.654Z,7.38
2022-10-28T08:44:57.221Z,11.35
2022-10-28T08:47:48.398Z,10.43
2022-10-28T08:50:18.554Z,6.95
2022-10-28T08:52:56.831Z,9.32
2022-10-28T08:55:29.910Z,7.78
2022-10-28T08:58:10.857Z,9.90
2022-10-28T09:00:38.597Z,12.40
2022-10-28T09:03:11.172Z,9.75
2022-10-28T09:05:39.583Z,8.60
2022-10-28T09:08:09.179Z,9.85
2022-10-28T09:10:35.887Z,11.60
2022-10-28T09:13:57.358Z,11.98
2022-10-28T09:16:46.339Z,11.25
2022-10-28T09:19:27.409Z,9.60
2022-10-28T09:22:29.439Z,10.18
2022-10-28T09:25:02.141Z,8.73
2022-10-28T09:27:52.541Z,6.40
2022-10-28T09:30:36.862Z,9.35
2022-10-28T09:33:21.992Z,9.80
2022-10-28T09:35:50.561Z,11.18
2022-10-28T09:38:19.271Z,7.38
2022-10-28T09:40:53.253Z,7.32
2022-10-28T09:43:28.222Z,9.15
2022-10-28T09:46:00.861Z,11.38
2022-10-28T09:48:45.559Z,9.77
2022-10-28T09:51:50.804Z,10.98
2022-10-28T09:54:27.806Z,8.05
2022-10-28T09:56:55.003Z,8.45
2022-10-28T09:59:22.106Z,13.63
2022-10-28T10:01:50.553Z,9.73
2022-10-28T10:04:23.188Z,12.20
2022-10-28T10:06:55.533Z,8.70
2022-10-28T10:09:26.829Z,12.98
2022-10-28T10:11:59.706Z,13.15
2022-10-28T10:14:34.484Z,7.32
2022-10-28T10:17:06.677Z,8.32
2022-10-28T10:20:11.550Z,9.30
2022-10-28T10:22:43.590Z,10.60
2022-10-28T10:25:19.460Z,7.97
2022-10-28T10:27:57.523Z,7.90
2022-10-28T10:30:40.159Z,6.68
2022-10-28T10:33:35.577Z,8.35
2022-10-28T10:36:03.908Z,9.63
2022-10-28T10:38:34.242Z,10.40
2022-10-28T10:41:01.104Z,7.60
2022-10-28T10:43:27.501Z,10.07
2022-10-28T10:46:06.600Z,7.22
2022-10-28T10:48:36.732Z,8.85
2022-10-28T10:51:23.806Z,7.50
2022-10-28T10:53:55.730Z,7.38
2022-10-28T10:56:32.582Z,6.53
2022-10-28T10:59:02.973Z,8.63
2022-10-28T11:01:36.166Z,11.85
2022-10-28T11:04:08.491Z,9.05
2022-10-28T11:06:42.330Z,9.82
2022-10-28T11:09:27.293Z,8.70
2022-10-28T11:11:56.897Z,8.85
2022-10-28T11:14:32.645Z,7.78
2022-10-28T11:17:01.660Z,10.40
2022-10-28T11:19:36.576Z,7.72
2022-10-28T11:22:24.832Z,11.93
2022-10-28T11:25:19.271Z,12.02
2022-10-28T11:28:16.636Z,8.40
2022-10-28T11:30:50.418Z,8.30
2022-10-28T11:33:29.902Z,7.47
2022-10-28T11:36:02.972Z,9.35
2022-10-28T11:39:02.014Z,11.43
2022-10-28T11:41:58.759Z,11.40
2022-10-28T11:44:47.216Z,9.18
2022-10-28T11:47:30.953Z,11.48
2022-10-28T11:50:49.191Z,8.30
2022-10-28T11:53:32.447Z,9.90
2022-10-28T11:56:18.186Z,10.35
2022-10-28T11:58:56.373Z,9.50
2022-10-28T12:01:26.201Z,8.70
2022-10-28T12:04:14.538Z,10.18
2022-10-28T12:07:01.359Z,9.07
2022-10-28T12:09:52.071Z,9.18
2022-10-28T12:12:29.182Z,12.15
2022-10-28T12:15:15.717Z,10.75
2022-10-28T12:17:52.968Z,8.95
2022-10-28T12:20:40.150Z,9.07
2022-10-28T12:23:14.202Z,8.38
2022-10-28T12:25:43.666Z,13.73
2022-10-28T12:28:40.740Z,8.82
2022-10-28T12:31:18.457Z,9.95
2022-10-28T12:33:51.644Z,9.60
2022-10-28T12:36:27.656Z,10.15
2022-10-28T12:39:00.444Z,9.77
2022-10-28T12:41:43.458Z,15.13
2022-10-28T12:44:16.280Z,8.25
2022-10-28T12:47:11.050Z,7.20
2022-10-28T12:49:52.868Z,11.07
2022-10-28T12:52:40.807Z,7.65
2022-10-28T12:57:54.076Z,8.48
2022-10-28T13:00:28.200Z,10.63
2022-10-28T13:03:10.937Z,10.45
2022-10-28T13:06:00.988Z,8.77
2022-10-28T13:08:44.165Z,12.15
2022-10-28T13:11:20.638Z,11.65
2022-10-28T13:13:57.619Z,10.57
2022-10-28T13:16:46.141Z,11.95
2022-10-28T13:19:50.878Z,6.13
2022-10-28T13:25:06.644Z,12.55
2022-10-28T13:27:33.874Z,10.90
2022-10-28T13:30:03.035Z,11.68
2022-10-28T13:32:40.483Z,10.88
2022-10-28T13:35:20.979Z,9.15
2022-10-28T13:37:50.926Z,13.30
2022-10-28T13:40:46.802Z,10.45
2022-10-28T13:43:21.533Z,12.40
2022-10-28T13:45:56.507Z,10.43
2022-10-28T13:48:29.271Z,14.18
2022-10-28T13:51:16.361Z,11.10
2022-10-28T13:53:46.282Z,8.85
2022-10-28T13:56:28.456Z,11.10
2022-10-28T13:58:59.279Z,13.48
2022-10-28T14:01:41.597Z,12.90
2022-10-28T14:04:38.930Z,14.48
2022-10-28T14:07:20.464Z,12.55
2022-10-28T14:09:50.129Z,10.75
2022-10-28T14:12:26.903Z,10.63
2022-10-28T14:14:59.221Z,8.30
2022-10-28T14:17:38.382Z,7.55
2022-10-28T14:20:20.451Z,10.77
2022-10-28T14:22:47.295Z,11.80
2022-10-28T14:25:48.551Z,10.27
2022-10-28T14:28:27.056Z,9.88
2022-10-28T14:31:09.262Z,11.32
2022-10-28T14:33:36.634Z,10.35
2022-10-28T14:36:18.434Z,13.18
2022-10-28T14:39:03.619Z,10.63
2022-10-28T14:41:58.132Z,10.15
2022-10-28T14:45:13.519Z,13.13
2022-10-28T14:48:17.751Z,11.07
2022-10-28T14:50:49.609Z,10.32
2022-10-28T14:53:33.935Z,10.85
2022-10-28T14:56:08.109Z,10.32
2022-10-28T14:58:41.704Z,9.40
2022-10-28T15:01:18.350Z,14.93
2022-10-28T15:03:52.180Z,8.23
2022-10-28T15:06:30.132Z,10.30
2022-10-28T15:09:06.792Z,7.30
2022-10-28T15:11:34.456Z,11.25
2022-10-28T15:14:30.825Z,11.05
2022-10-28T15:17:00.562Z,9.30
2022-10-28T15:19:34.079Z,10.15
2022-10-28T15:22:02.624Z,12.00
2022-10-28T15:24:29.676Z,8.38
2022-10-28T15:26:56.927Z,9.75
2022-10-28T15:29:24.773Z,7.10
2022-10-28T15:32:04.707Z,8.07
2022-10-28T15:34:32.336Z,10.70
2022-10-28T15:37:00.328Z,13.45
2022-10-28T15:39:27.261Z,10.63
2022-10-28T15:41:54.780Z,9.30
2022-10-28T15:44:38.573Z,13.13
2022-10-28T15:47:25.803Z,12.57
2022-10-28T15:50:21.404Z,10.98
2022-10-28T15:52:52.041Z,12.90
2022-10-28T15:55:18.706Z,12.50
2022-10-28T15:57:49.306Z,11.77
2022-10-28T16:00:23.464Z,12.45
2022-10-28T16:02:56.288Z,12.45
2022-10-28T16:05:43.116Z,17.90
2022-10-28T16:08:20.344Z,15.60
2022-10-28T16:10:50.435Z,15.52
2022-10-28T16:13:36.188Z,20.38
2022-10-28T16:16:07.803Z,22.27
2022-10-28T16:18:42.629Z,15.43
2022-10-28T16:21:17.874Z,10.85
2022-10-28T16:23:48.354Z,15.32
2022-10-28T16:26:15.474Z,13.10
2022-10-28T16:28:45.291Z,13.10
2022-10-28T16:31:16.300Z,16.50
2022-10-28T16:33:43.517Z,12.55
2022-10-28T16:36:10.376Z,15.95
2022-10-28T16:38:37.403Z,13.85
2022-10-28T16:41:05.750Z,12.75
2022-10-28T16:43:32.679Z,14.50
2022-10-28T16:46:00.397Z,13.80
2022-10-28T16:48:29.297Z,11.45
2022-10-28T16:51:00.741Z,14.27
2022-10-28T16:53:28.294Z,13.82
2022-10-28T16:55:58.925Z,13.23
2022-10-28T16:58:27.157Z,14.32
2022-10-28T17:00:54.228Z,15.65
2022-10-28T17:03:21.116Z,20.45
2022-10-28T17:05:47.759Z,11.63
2022-10-28T17:08:14.943Z,16.30
2022-10-28T17:10:42.462Z,19.13
2022-10-28T17:13:13.803Z,17.63
2022-10-28T17:15:41.375Z,18.15
2022-10-28T17:18:10.957Z,15.07
2022-10-28T17:20:37.522Z,13.27
2022-10-28T17:23:05.525Z,20.02
2022-10-28T17:25:32.110Z,17.90
2022-10-28T17:27:58.908Z,20.00
2022-10-28T17:30:26.738Z,20.23
2022-10-28T17:32:54.233Z,19.00
2022-10-28T17:35:22.308Z,18.08
2022-10-28T17:37:52.142Z,20.60
2022-10-28T17:40:18.988Z,32.75
2022-10-28T17:42:45.848Z,32.35
2022-10-28T17:45:14.434Z,27.08
2022-10-28T17:47:44.322Z,25.45
2022-10-28T17:50:11.079Z,21.30
2022-10-28T17:52:38.660Z,20.65
2022-10-28T17:55:06.087Z,22.98
2022-10-28T17:57:32.576Z,20.35
2022-10-28T17:59:59.363Z,19.20
2022-10-28T18:02:26.161Z,19.33
2022-10-28T18:04:52.759Z,17.25
2022-10-28T18:07:19.467Z,16.45
2022-10-28T18:09:46.030Z,21.15
2022-10-28T18:12:13.702Z,23.73
2022-10-28T18:14:40.189Z,18.42
2022-10-28T18:17:06.778Z,16.55
2022-10-28T18:19:33.716Z,21.48
2022-10-28T18:22:00.313Z,19.60
2022-10-28T18:24:26.840Z,19.70
2022-10-28T18:26:54.279Z,19.75
2022-10-28T18:29:20.743Z,16.77
2022-10-28T18:31:47.447Z,14.18
2022-10-28T18:34:14.177Z,11.15
2022-10-28T18:36:40.840Z,19.05
2022-10-28T18:39:08.134Z,14.80
2022-10-28T18:41:40.202Z,14.25
2022-10-28T18:44:11.492Z,12.55
2022-10-28T18:46:38.300Z,17.35
2022-10-28T18:49:07.754Z,15.10
2022-10-28T18:51:34.872Z,16.02
2022-10-28T18:54:01.628Z,16.48
2022-10-28T18:56:29.561Z,13.70
2022-10-28T18:58:57.632Z,18.05
2022-10-28T19:01:26.939Z,13.25
2022-10-28T19:03:56.813Z,14.88
2022-10-28T19:06:24.590Z,10.85
2022-10-28T19:08:56.185Z,11.90
2022-10-28T19:11:30.774Z,12.30
2022-10-28T19:13:59.623Z,13.38
2022-10-28T19:16:27.596Z,12.77
2022-10-28T19:18:58.427Z,12.75
2022-10-28T19:21:26.516Z,11.70
2022-10-28T19:23:55.060Z,11.02
2022-10-28T19:26:23.208Z,12.32
2022-10-28T19:28:51.832Z,13.20
2022-10-28T19:31:21.039Z,11.18
2022-10-28T19:33:48.014Z,8.98
2022-10-28T19:36:15.592Z,13.10
2022-10-28T19:38:42.166Z,17.52
2022-10-28T19:41:12.842Z,12.13
2022-10-28T19:43:40.881Z,14.23
2022-10-28T19:46:13.688Z,11.20
2022-10-28T19:48:42.191Z,11.52
2022-10-28T19:51:13.687Z,13.65
2022-10-28T19:53:40.518Z,10.00
2022-10-28T19:56:07.837Z,19.10
2022-10-28T19:58:35.141Z,11.25
2022-10-28T20:01:04.684Z,10.80
2022-10-28T20:03:34.578Z,14.70
2022-10-28T20:06:06.176Z,19.63
2022-10-28T20:08:37.968Z,13.05
2022-10-28T20:11:11.683Z,16.10
2022-10-28T20:13:39.060Z,16.30
2022-10-28T20:16:09.580Z,9.20
2022-10-28T20:18:36.788Z,11.77
2022-10-28T20:21:09.474Z,12.70
2022-10-28T20:23:35.990Z,12.07
2022-10-28T20:26:04.022Z,11.77
2022-10-28T20:28:30.770Z,11.90
2022-10-28T20:31:02.903Z,17.05
2022-10-28T20:33:30.612Z,10.10
2022-10-28T20:35:58.103Z,21.95
2022-10-28T20:38:25.509Z,11.05
2022-10-28T20:40:55.424Z,12.82
2022-10-28T20:43:23.656Z,11.40
2022-10-28T20:45:53.132Z,12.73
2022-10-28T20:48:20.822Z,11.73
2022-10-28T20:50:55.522Z,15.07
2022-10-28T20:53:23.376Z,15.32
2022-10-28T20:55:51.554Z,12.20
2022-10-28T20:58:19.399Z,17.50
2022-10-28T21:00:46.140Z,13.00
2022-10-28T21:03:13.176Z,15.80
2022-10-28T21:05:40.549Z,12.02
2022-10-28T21:08:07.097Z,15.13
2022-10-28T21:10:35.058Z,11.50
2022-10-28T21:13:01.960Z,15.23
2022-10-28T21:15:28.650Z,14.73
2022-10-28T21:17:55.537Z,12.35
2022-10-28T21:20:22.423Z,14.38
2022-10-28T21:22:49.232Z,15.65
2022-10-28T21:25:15.831Z,14.88
2022-10-28T21:27:42.354Z,13.18
2022-10-28T21:30:09.856Z,11.10
2022-10-28T21:32:37.159Z,15.05
2022-10-28T21:35:05.716Z,11.27
2022-10-28T21:37:33.078Z,15.63
2022-10-28T21:40:01.174Z,12.43
2022-10-28T21:42:27.809Z,14.07
2022-10-28T21:44:54.321Z,12.65
2022-10-28T21:49:52.195Z,14.05
2022-10-28T21:52:19.046Z,15.55
2022-10-28T21:54:45.675Z,13.82
2022-10-28T21:57:12.874Z,12.40
2022-10-28T21:59:39.290Z,14.65
2022-10-28T22:02:05.855Z,11.50
2022-10-28T22:04:32.434Z,14.80
2022-10-28T22:06:59.009Z,10.05
2022-10-28T22:09:25.396Z,15.18
2022-10-28T22:11:51.874Z,18.35
2022-10-28T22:14:18.574Z,11.90
2022-10-28T22:16:45.028Z,15.40
2022-10-28T22:19:14.622Z,14.38
2022-10-28T22:21:41.069Z,12.75
2022-10-28T22:24:08.099Z,15.10
2022-10-28T22:26:34.822Z,14.05
2022-10-28T22:29:01.508Z,14.55
2022-10-28T22:31:31.332Z,11.50
2022-10-28T22:33:58.552Z,19.70
2022-10-28T22:36:27.784Z,13.40
2022-10-28T22:38:54.389Z,14.38
2022-10-28T22:41:23.072Z,13.82
2022-10-28T22:43:52.490Z,16.60
2022-10-28T22:46:19.510Z,16.02
2022-10-28T22:48:46.755Z,9.00
2022-10-28T22:51:13.687Z,16.77
2022-10-28T22:53:40.473Z,17.67
2022-10-28T22:56:10.750Z,13.85
2022-10-28T22:58:37.185Z,12.50
2022-10-28T23:01:16.288Z,13.85
2022-10-28T23:03:45.617Z,14.85
2022-10-28T23:06:14.213Z,18.48
2022-10-28T23:08:42.391Z,16.40
2022-10-28T23:11:13.687Z,20.40
2022-10-28T23:13:40.153Z,14.48
2022-10-28T23:16:08.925Z,14.77
2022-10-28T23:18:35.669Z,13.83
2022-10-28T23:21:28.500Z,11.50
2022-10-28T23:23:57.053Z,13.90
2022-10-28T23:26:24.465Z,14.00
2022-10-28T23:28:53.269Z,14.33
2022-10-28T23:31:20.938Z,10.90
2022-10-28T23:33:47.683Z,13.57
2022-10-28T23:36:15.791Z,14.20
2022-10-28T23:38:42.291Z,12.83
2022-10-28T23:41:15.987Z,14.63
2022-10-28T23:43:42.788Z,23.08
2022-10-28T23:46:10.151Z,20.47
2022-10-28T23:48:36.786Z,12.37
2022-10-28T23:51:03.648Z,14.27
2022-10-28T23:53:30.621Z,14.80
2022-10-28T23:55:57.629Z,16.80
2022-10-28T23:58:24.124Z,17.13
